Kotoyarvi — UEGW — position and weather

sailwx.info

Track history (hours):
 
Tides and Currents Weather Stations Pressure Air Temp Water Temp Dewpoint Dewpoint Depression Visibility Wind Speed Wind Dir Waves Ship Positions

Kotoyarvi

Last reported at 2017-Oct-17 13:20 UTC. Time now 2017-Oct-20 01:47 UTC.
Position N 70°09' E 032°02'.

Length 45 m; draft 4.4 m.

Type: Fishing. MMSI: 273440730.

Date/timePositionNaut miles runAvg speedWind from/ knotsBaromVisibWave heightAir tempDewpointWater temp
2017-Oct-17 13:20N 70°09' E 032°02'1 3.7
2017-Oct-17 13:00N 70°10' E 031°59'1 1.2
2017-Oct-17 12:30N 70°10' E 031°59'3 6.2
2017-Oct-17 11:59N 70°10' E 031°49'4 7.9
2017-Oct-17 11:30N 70°10' E 031°38'4 7.5
2017-Oct-17 10:59N 70°09' E 031°28'4 7.8
2017-Oct-17 10:30N 70°07' E 031°18'4 7.8
2017-Oct-17 10:00N 70°05' E 031°08'4 7.1
2017-Oct-17 09:29N 70°03' E 030°58'4 7.2
2017-Oct-17 08:59N 70°02' E 030°49'4 7.4
2017-Oct-17 08:30N 69°60' E 030°40'4 7.6
2017-Oct-17 08:00N 69°58' E 030°31'4 8.0
2017-Oct-17 07:30N 69°56' E 030°21'4 8.2
2017-Oct-17 07:00N 69°54' E 030°10'4 9.0
2017-Oct-17 06:30N 69°49' E 030°07'4 8.3
2017-Oct-17 06:00N 69°45' E 030°05'2 3.1
2017-Oct-17 05:29N 69°44' E 030°05'0 0.0
2017-Oct-17 05:00N 69°44' E 030°05'0 0.0
2017-Oct-17 04:30N 69°44' E 030°05'0 0.0
2017-Oct-17 04:00N 69°44' E 030°05'0 0.0
2017-Oct-17 03:30N 69°44' E 030°05'0 0.0
2017-Oct-17 03:00N 69°44' E 030°05'0 0.0
2017-Oct-17 02:30N 69°44' E 030°05'0 0.0
2017-Oct-17 02:00N 69°44' E 030°05'0 0.0
2017-Oct-17 01:29N 69°44' E 030°05'0 0.0
2017-Oct-17 01:00N 69°44' E 030°05'0 0.0
2017-Oct-17 00:30N 69°44' E 030°05'0 0.0
2017-Oct-17 00:00N 69°44' E 030°05'0 0.0
2017-Oct-16 23:30N 69°44' E 030°05'0 0.0
2017-Oct-16 23:00N 69°44' E 030°05'0 0.0
2017-Oct-16 22:30N 69°44' E 030°05'0 0.0
2017-Oct-16 22:00N 69°44' E 030°05'0 0.0
2017-Oct-16 21:29N 69°44' E 030°05'0 0.0
2017-Oct-16 21:00N 69°44' E 030°05'0 0.0
2017-Oct-16 20:30N 69°44' E 030°05'0 0.0
2017-Oct-16 20:00N 69°44' E 030°05'0 0.0
2017-Oct-16 19:30N 69°44' E 030°05'0 0.0
2017-Oct-16 19:00N 69°44' E 030°05'0 0.0
2017-Oct-16 18:30N 69°44' E 030°05'0 0.0
2017-Oct-16 18:00N 69°44' E 030°05'0 0.0
2017-Oct-16 17:30N 69°44' E 030°05'0 0.0
2017-Oct-16 17:00N 69°44' E 030°05'0 0.0
2017-Oct-16 16:30N 69°44' E 030°05'0 0.0
2017-Oct-16 16:00N 69°44' E 030°05'0 0.0
2017-Oct-16 15:30N 69°44' E 030°05'0 0.0
2017-Oct-16 15:00N 69°44' E 030°05'0 0.0
2017-Oct-16 14:30N 69°44' E 030°05'0 0.0
2017-Oct-16 13:30N 69°44' E 030°05'0 0.0
2017-Oct-16 13:00N 69°44' E 030°05'0 0.0
2017-Oct-16 12:30N 69°44' E 030°05'0 0.0
2017-Oct-16 12:00N 69°44' E 030°05'0 0.0
2017-Oct-16 11:30N 69°44' E 030°05'0 0.0
2017-Oct-16 11:00N 69°44' E 030°05'0 0.0
2017-Oct-16 10:29N 69°44' E 030°05'0 0.0
2017-Oct-16 10:00N 69°44' E 030°05'0 0.5
2017-Oct-16 09:30N 69°44' E 030°04'3 5.3
2017-Oct-16 09:00N 69°47' E 030°05'5 9.4
2017-Oct-16 08:29N 69°51' E 030°07'4 8.7
2017-Oct-16 08:00N 69°55' E 030°13'5 9.4
2017-Oct-16 07:30N 69°57' E 030°24'5 9.9
2017-Oct-16 06:59N 69°60' E 030°37'5 9.9
2017-Oct-16 06:30N 70°02' E 030°50'5 9.8
2017-Oct-16 06:00N 70°04' E 031°02'5 9.5
2017-Oct-16 05:30N 70°07' E 031°15'4 8.4
2017-Oct-16 05:00N 70°08' E 031°26'4 8.1
2017-Oct-16 04:30N 70°09' E 031°38'4 8.1
2017-Oct-16 04:00N 70°10' E 031°49'72 6.3
2017-Oct-15 16:38N 69°03' E 033°04'1 5.5
2017-Oct-15 16:29N 69°03' E 033°03'3 6.1
2017-Oct-15 16:00N 68°60' E 033°03'3 5.8
2017-Oct-15 15:31N 68°57' E 033°01'0 0.5
2017-Oct-15 15:00N 68°57' E 033°02'0 0.0
2017-Oct-15 14:00N 68°57' E 033°02'0 0.0
2017-Oct-15 13:30N 68°57' E 033°02'0 0.0
2017-Oct-15 13:00N 68°57' E 033°02'0 0.0
2017-Oct-15 12:30N 68°57' E 033°02'0 0.0
2017-Oct-15 12:00N 68°57' E 033°02'0 0.0
2017-Oct-15 11:29N 68°57' E 033°02'0 0.0
2017-Oct-15 11:00N 68°57' E 033°02'0 0.0
2017-Oct-15 10:30N 68°57' E 033°02'0 0.0
2017-Oct-15 10:00N 68°57' E 033°02'0 0.0
2017-Oct-15 09:30N 68°57' E 033°02'0 0.0
2017-Oct-15 09:00N 68°57' E 033°02'0 0.0
2017-Oct-15 08:30N 68°57' E 033°02'0 0.0
2017-Oct-15 08:00N 68°57' E 033°02'0 0.0
2017-Oct-15 07:29N 68°57' E 033°02'0 0.0
2017-Oct-15 07:00N 68°57' E 033°02'0 0.0
2017-Oct-15 06:30N 68°57' E 033°02'0 0.0
2017-Oct-15 06:01N 68°57' E 033°02'0 0.0
2017-Oct-15 05:30N 68°57' E 033°02'0 0.0
2017-Oct-15 05:00N 68°57' E 033°02'0 0.0
2017-Oct-15 04:30N 68°57' E 033°02'0 0.0
2017-Oct-15 03:59N 68°57' E 033°02'0 0.0
2017-Oct-15 03:29N 68°57' E 033°02'0 0.0
2017-Oct-15 03:00N 68°57' E 033°02'0 0.0
2017-Oct-15 02:30N 68°57' E 033°02'0 0.0
2017-Oct-15 02:00N 68°57' E 033°02'0 0.0
2017-Oct-15 01:30N 68°57' E 033°02'0 0.0
2017-Oct-15 01:00N 68°57' E 033°02'0 0.0
2017-Oct-15 00:31N 68°57' E 033°02'0 0.0
2017-Oct-15 00:00N 68°57' E 033°02'0 0.0
2017-Oct-14 23:30N 68°57' E 033°02'0 0.0
2017-Oct-14 23:01N 68°57' E 033°02'0 0.0
2017-Oct-14 22:30N 68°57' E 033°02'0 0.0
2017-Oct-14 22:00N 68°57' E 033°02'0 0.0
2017-Oct-14 21:30N 68°57' E 033°02'0 0.0
2017-Oct-14 21:00N 68°57' E 033°02'0 0.0
2017-Oct-14 20:30N 68°57' E 033°02'0 0.0
2017-Oct-14 20:00N 68°57' E 033°02'0 0.0
2017-Oct-14 19:29N 68°57' E 033°02'0 0.0
2017-Oct-14 19:00N 68°57' E 033°02'0 0.0
2017-Oct-14 18:30N 68°57' E 033°02'0 0.0
2017-Oct-14 18:00N 68°57' E 033°02'0 0.0
2017-Oct-14 17:29N 68°57' E 033°02'0 0.0
2017-Oct-14 17:00N 68°57' E 033°02'0 0.0
2017-Oct-14 16:30N 68°57' E 033°02'0 0.0
2017-Oct-14 16:00N 68°57' E 033°02'0 0.0
2017-Oct-14 15:30N 68°57' E 033°02'0 0.0
2017-Oct-14 15:00N 68°57' E 033°02'0 0.0
2017-Oct-14 14:30N 68°57' E 033°02'0 0.0
2017-Oct-14 14:01N 68°57' E 033°02'0 0.0
2017-Oct-14 13:30N 68°57' E 033°02'0 0.0
2017-Oct-14 13:01N 68°57' E 033°02'0 0.0
2017-Oct-14 12:30N 68°57' E 033°02'0 0.0
2017-Oct-14 12:00N 68°57' E 033°02'0 0.0
2017-Oct-14 11:30N 68°57' E 033°02'0 0.0
2017-Oct-14 10:59N 68°57' E 033°02'0 0.0
2017-Oct-14 10:30N 68°57' E 033°02'0 0.0
2017-Oct-14 10:00N 68°57' E 033°02'0 0.0
2017-Oct-14 09:30N 68°57' E 033°02'0 0.0
2017-Oct-14 09:00N 68°57' E 033°02'0 0.0
2017-Oct-14 08:30N 68°57' E 033°02'0 0.0
2017-Oct-14 08:00N 68°57' E 033°02'0 0.0
2017-Oct-14 07:30N 68°57' E 033°02'0 0.0
2017-Oct-14 07:00N 68°57' E 033°02'0 0.0
2017-Oct-14 06:30N 68°57' E 033°02'0 0.0
2017-Oct-14 05:59N 68°57' E 033°02'0 0.0
2017-Oct-14 05:30N 68°57' E 033°02'0 0.0
2017-Oct-14 05:00N 68°57' E 033°02'0 0.0
2017-Oct-14 04:30N 68°57' E 033°02'0 0.0
2017-Oct-14 04:00N 68°57' E 033°02'0 0.0
2017-Oct-14 03:30N 68°57' E 033°02'0 0.0
2017-Oct-14 03:00N 68°57' E 033°02'0 0.0
2017-Oct-14 02:30N 68°57' E 033°02'0 0.0
2017-Oct-14 02:00N 68°57' E 033°02'0 0.0
2017-Oct-14 01:30N 68°57' E 033°02'0 0.0
2017-Oct-14 01:00N 68°57' E 033°02'0 0.0
2017-Oct-14 00:31N 68°57' E 033°02'0 0.0
2017-Oct-14 00:01N 68°57' E 033°02'0 0.0
2017-Oct-13 23:30N 68°57' E 033°02'0 0.0
2017-Oct-13 23:00N 68°57' E 033°02'0 0.0
2017-Oct-13 22:30N 68°57' E 033°02'0 0.0
2017-Oct-13 21:59N 68°57' E 033°02'0 0.0
2017-Oct-13 21:30N 68°57' E 033°02'0 0.0
2017-Oct-13 21:00N 68°57' E 033°02'0 0.0
2017-Oct-13 20:30N 68°57' E 033°02'0 0.0
2017-Oct-13 20:00N 68°57' E 033°02'0 0.0
2017-Oct-13 19:29N 68°57' E 033°02'0 0.0
2017-Oct-13 19:00N 68°57' E 033°02'0 0.0
2017-Oct-13 18:30N 68°57' E 033°02'0 0.0
2017-Oct-13 18:00N 68°57' E 033°02'0 0.0
2017-Oct-13 17:30N 68°57' E 033°02'0 0.0
2017-Oct-13 17:01N 68°57' E 033°02'0 0.0
2017-Oct-13 16:30N 68°57' E 033°02'0 0.0
2017-Oct-13 15:59N 68°57' E 033°02'0 0.0
2017-Oct-13 15:30N 68°57' E 033°02'0 0.0
2017-Oct-13 15:00N 68°57' E 033°02'0 0.0
2017-Oct-13 14:30N 68°57' E 033°02'0 0.0
2017-Oct-13 14:00N 68°57' E 033°02'0 0.0
2017-Oct-13 13:30N 68°57' E 033°02'0 0.0
2017-Oct-13 13:01N 68°57' E 033°02'0 0.0
2017-Oct-13 12:31N 68°57' E 033°02'0 0.0
2017-Oct-13 12:00N 68°57' E 033°02'0 0.0
2017-Oct-13 11:30N 68°57' E 033°02'0 0.0
2017-Oct-13 11:00N 68°57' E 033°02'0 0.0
2017-Oct-13 10:31N 68°57' E 033°02'0 0.0
2017-Oct-13 10:00N 68°57' E 033°02'0 0.0
2017-Oct-13 09:29N 68°57' E 033°02'0 0.0
2017-Oct-13 09:00N 68°57' E 033°02'0 0.0
2017-Oct-13 08:31N 68°57' E 033°02'0 0.0
2017-Oct-13 08:00N 68°57' E 033°02'0 0.0
2017-Oct-13 07:30N 68°57' E 033°02'0 0.0
2017-Oct-13 07:01N 68°57' E 033°02'0 0.0
2017-Oct-13 06:30N 68°57' E 033°02'0 0.0
2017-Oct-13 06:00N 68°57' E 033°02'0 0.0
2017-Oct-13 05:30N 68°57' E 033°02'0 0.0
2017-Oct-13 05:00N 68°57' E 033°02'0 0.0
2017-Oct-13 04:30N 68°57' E 033°02'0 0.0
2017-Oct-13 04:00N 68°57' E 033°02'0 0.0
2017-Oct-13 03:29N 68°57' E 033°02'0 0.0
2017-Oct-13 03:00N 68°57' E 033°02'0 0.0
2017-Oct-13 02:30N 68°57' E 033°02'0 0.0
2017-Oct-13 02:00N 68°57' E 033°02'0 0.0
2017-Oct-13 01:30N 68°57' E 033°02'0 0.0
2017-Oct-13 01:00N 68°57' E 033°02'0 0.0
2017-Oct-13 00:30N 68°57' E 033°02'0 0.0
2017-Oct-13 00:00N 68°57' E 033°02'0 0.0
2017-Oct-12 23:30N 68°57' E 033°02'0 0.0
2017-Oct-12 23:00N 68°57' E 033°02'0 0.0
2017-Oct-12 22:29N 68°57' E 033°02'0 0.0
2017-Oct-12 22:00N 68°57' E 033°02'0 0.0
2017-Oct-12 21:30N 68°57' E 033°02'0 0.0
2017-Oct-12 21:00N 68°57' E 033°02'0 0.0
2017-Oct-12 20:30N 68°57' E 033°02'0 0.0
2017-Oct-12 20:00N 68°57' E 033°02'0 0.0
2017-Oct-12 19:30N 68°57' E 033°02'0 0.0
2017-Oct-12 19:00N 68°57' E 033°02'0 0.0
2017-Oct-12 18:30N 68°57' E 033°02'0 0.0
2017-Oct-12 18:00N 68°57' E 033°02'0 0.0
2017-Oct-12 17:30N 68°57' E 033°02'0 0.0
2017-Oct-12 17:01N 68°57' E 033°02'0 0.0
2017-Oct-12 16:30N 68°57' E 033°02'0 0.0
2017-Oct-12 16:00N 68°57' E 033°02'0 0.0
2017-Oct-12 15:30N 68°57' E 033°02'0 0.0
2017-Oct-12 15:00N 68°57' E 033°02'0 0.0
2017-Oct-12 14:29N 68°57' E 033°02'0 0.0
2017-Oct-12 14:00N 68°57' E 033°02'0 0.0
2017-Oct-12 13:30N 68°57' E 033°02'0 0.0
2017-Oct-12 13:00N 68°57' E 033°02'0 0.0
2017-Oct-12 12:30N 68°57' E 033°02'0 0.0
2017-Oct-12 12:00N 68°57' E 033°02'0 0.0
2017-Oct-12 11:30N 68°57' E 033°02'0 0.0
2017-Oct-12 11:00N 68°57' E 033°02'0 0.0
2017-Oct-12 10:30N 68°57' E 033°02'0 0.0
2017-Oct-12 10:00N 68°57' E 033°02'0 0.0
2017-Oct-12 09:30N 68°57' E 033°02'0 0.0
2017-Oct-12 09:00N 68°57' E 033°02'0 0.0
2017-Oct-12 07:45N 68°57' E 033°02'0 0.0
2017-Oct-12 07:14N 68°57' E 033°02'0 0.6
2017-Oct-12 07:01N 68°57' E 033°01'0 0.3
2017-Oct-12 06:27N 68°57' E 033°02'0 0.0
2017-Oct-12 06:00N 68°57' E 033°02'0 0.0
2017-Oct-12 05:30N 68°57' E 033°02'0 0.0
2017-Oct-12 05:00N 68°57' E 033°02'0 0.0
2017-Oct-12 04:29N 68°57' E 033°02'0 0.0
2017-Oct-12 04:00N 68°57' E 033°02'0 0.0
2017-Oct-12 03:30N 68°57' E 033°02'0 0.0
2017-Oct-12 03:00N 68°57' E 033°02'0 0.0
2017-Oct-12 02:30N 68°57' E 033°02'0 0.0
2017-Oct-12 02:00N 68°57' E 033°02'0 0.0
2017-Oct-12 01:30N 68°57' E 033°02'0 0.0
2017-Oct-12 01:00N 68°57' E 033°02'0 0.0
2017-Oct-12 00:30N 68°57' E 033°02'0 0.0
2017-Oct-12 00:00N 68°57' E 033°02'0 0.0
2017-Oct-11 23:30N 68°57' E 033°02'0 0.0
2017-Oct-11 23:00N 68°57' E 033°02'0 0.0
2017-Oct-11 22:30N 68°57' E 033°02'0 0.0
2017-Oct-11 22:00N 68°57' E 033°02'0 0.0
2017-Oct-11 21:30N 68°57' E 033°02'0 0.0
2017-Oct-11 21:00N 68°57' E 033°02'0 0.0
2017-Oct-11 20:30N 68°57' E 033°02'0 0.0
2017-Oct-11 20:00N 68°57' E 033°02'0 0.0
2017-Oct-11 19:30N 68°57' E 033°02'0 0.0
2017-Oct-11 19:00N 68°57' E 033°02'0 0.0
2017-Oct-11 18:30N 68°57' E 033°02'0 0.0
2017-Oct-11 18:01N 68°57' E 033°02'0 0.0
2017-Oct-11 17:29N 68°57' E 033°02'0 0.0
2017-Oct-11 17:00N 68°57' E 033°02'0 0.0
2017-Oct-11 00:01N 68°57' E 033°02'0 0.0
2017-Oct-10 23:31N 68°57' E 033°02'0 0.0
2017-Oct-10 23:00N 68°57' E 033°02'0 0.0
2017-Oct-10 22:30N 68°57' E 033°02'0 0.0
2017-Oct-10 22:00N 68°57' E 033°02'0 0.0
2017-Oct-10 21:30N 68°57' E 033°02'0 0.0
2017-Oct-10 21:00N 68°57' E 033°02'0 0.0
2017-Oct-10 20:30N 68°57' E 033°02'0 0.0
2017-Oct-10 20:00N 68°57' E 033°02'0 0.0
2017-Oct-10 19:30N 68°57' E 033°02'0 0.0
2017-Oct-10 19:00N 68°57' E 033°02'0 0.0
2017-Oct-10 18:30N 68°57' E 033°02'0 0.0
2017-Oct-10 18:00N 68°57' E 033°02'0 0.0
2017-Oct-10 17:30N 68°57' E 033°02'0 0.0
2017-Oct-10 17:00N 68°57' E 033°02'0 0.0
2017-Oct-10 16:30N 68°57' E 033°02'0 0.0
2017-Oct-10 16:00N 68°57' E 033°02'0 0.0
2017-Oct-10 15:30N 68°57' E 033°02'0 0.0
2017-Oct-10 15:00N 68°57' E 033°02'0 0.0
2017-Oct-10 14:00N 68°57' E 033°02'0 0.0
2017-Oct-10 13:30N 68°57' E 033°02'0 0.0
2017-Oct-10 12:31N 68°57' E 033°02'0 0.9
2017-Oct-10 12:31N 68°57' E 033°02'0 0.0
2017-Oct-10 12:00N 68°57' E 033°02'0 0.0
2017-Oct-10 11:30N 68°57' E 033°02'0 0.0
2017-Oct-10 10:58N 68°57' E 033°02'0 0.0
2017-Oct-10 10:30N 68°57' E 033°02'  
Track history (hours):
 
Tides and Currents Weather Stations Pressure Air Temp Water Temp Dewpoint Dewpoint Depression Visibility Wind Speed Wind Dir Waves Ship Positions

Kotoyarvi

Last reported at 2017-Oct-17 13:20 UTC. Time now 2017-Oct-20 01:47 UTC.
Position N 70°09' E 032°02'.

Length 45 m; draft 4.4 m.

Type: Fishing. MMSI: 273440730.

Date/timePositionNaut miles runAvg speedWind from/ knotsBaromVisibWave heightAir tempDewpointWater temp
2017-Oct-17 13:20N 70°09' E 032°02'1 3.7
2017-Oct-17 13:00N 70°10' E 031°59'1 1.2
2017-Oct-17 12:30N 70°10' E 031°59'3 6.2
2017-Oct-17 11:59N 70°10' E 031°49'4 7.9
2017-Oct-17 11:30N 70°10' E 031°38'4 7.5
2017-Oct-17 10:59N 70°09' E 031°28'4 7.8
2017-Oct-17 10:30N 70°07' E 031°18'4 7.8
2017-Oct-17 10:00N 70°05' E 031°08'4 7.1
2017-Oct-17 09:29N 70°03' E 030°58'4 7.2
2017-Oct-17 08:59N 70°02' E 030°49'4 7.4
2017-Oct-17 08:30N 69°60' E 030°40'4 7.6
2017-Oct-17 08:00N 69°58' E 030°31'4 8.0
2017-Oct-17 07:30N 69°56' E 030°21'4 8.2
2017-Oct-17 07:00N 69°54' E 030°10'4 9.0
2017-Oct-17 06:30N 69°49' E 030°07'4 8.3
2017-Oct-17 06:00N 69°45' E 030°05'2 3.1
2017-Oct-17 05:29N 69°44' E 030°05'0 0.0
2017-Oct-17 05:00N 69°44' E 030°05'0 0.0
2017-Oct-17 04:30N 69°44' E 030°05'0 0.0
2017-Oct-17 04:00N 69°44' E 030°05'0 0.0
2017-Oct-17 03:30N 69°44' E 030°05'0 0.0
2017-Oct-17 03:00N 69°44' E 030°05'0 0.0
2017-Oct-17 02:30N 69°44' E 030°05'0 0.0
2017-Oct-17 02:00N 69°44' E 030°05'0 0.0
2017-Oct-17 01:29N 69°44' E 030°05'0 0.0
2017-Oct-17 01:00N 69°44' E 030°05'0 0.0
2017-Oct-17 00:30N 69°44' E 030°05'0 0.0
2017-Oct-17 00:00N 69°44' E 030°05'0 0.0
2017-Oct-16 23:30N 69°44' E 030°05'0 0.0
2017-Oct-16 23:00N 69°44' E 030°05'0 0.0
2017-Oct-16 22:30N 69°44' E 030°05'0 0.0
2017-Oct-16 22:00N 69°44' E 030°05'0 0.0
2017-Oct-16 21:29N 69°44' E 030°05'0 0.0
2017-Oct-16 21:00N 69°44' E 030°05'0 0.0
2017-Oct-16 20:30N 69°44' E 030°05'0 0.0
2017-Oct-16 20:00N 69°44' E 030°05'0 0.0
2017-Oct-16 19:30N 69°44' E 030°05'0 0.0
2017-Oct-16 19:00N 69°44' E 030°05'0 0.0
2017-Oct-16 18:30N 69°44' E 030°05'0 0.0
2017-Oct-16 18:00N 69°44' E 030°05'0 0.0
2017-Oct-16 17:30N 69°44' E 030°05'0 0.0
2017-Oct-16 17:00N 69°44' E 030°05'0 0.0
2017-Oct-16 16:30N 69°44' E 030°05'0 0.0
2017-Oct-16 16:00N 69°44' E 030°05'0 0.0
2017-Oct-16 15:30N 69°44' E 030°05'0 0.0
2017-Oct-16 15:00N 69°44' E 030°05'0 0.0
2017-Oct-16 14:30N 69°44' E 030°05'0 0.0
2017-Oct-16 13:30N 69°44' E 030°05'0 0.0
2017-Oct-16 13:00N 69°44' E 030°05'0 0.0
2017-Oct-16 12:30N 69°44' E 030°05'0 0.0
2017-Oct-16 12:00N 69°44' E 030°05'0 0.0
2017-Oct-16 11:30N 69°44' E 030°05'0 0.0
2017-Oct-16 11:00N 69°44' E 030°05'0 0.0
2017-Oct-16 10:29N 69°44' E 030°05'0 0.0
2017-Oct-16 10:00N 69°44' E 030°05'0 0.5
2017-Oct-16 09:30N 69°44' E 030°04'3 5.3
2017-Oct-16 09:00N 69°47' E 030°05'5 9.4
2017-Oct-16 08:29N 69°51' E 030°07'4 8.7
2017-Oct-16 08:00N 69°55' E 030°13'5 9.4
2017-Oct-16 07:30N 69°57' E 030°24'5 9.9
2017-Oct-16 06:59N 69°60' E 030°37'5 9.9
2017-Oct-16 06:30N 70°02' E 030°50'5 9.8
2017-Oct-16 06:00N 70°04' E 031°02'5 9.5
2017-Oct-16 05:30N 70°07' E 031°15'4 8.4
2017-Oct-16 05:00N 70°08' E 031°26'4 8.1
2017-Oct-16 04:30N 70°09' E 031°38'4 8.1
2017-Oct-16 04:00N 70°10' E 031°49'72 6.3
2017-Oct-15 16:38N 69°03' E 033°04'1 5.5
2017-Oct-15 16:29N 69°03' E 033°03'3 6.1
2017-Oct-15 16:00N 68°60' E 033°03'3 5.8
2017-Oct-15 15:31N 68°57' E 033°01'0 0.5
2017-Oct-15 15:00N 68°57' E 033°02'0 0.0
2017-Oct-15 14:00N 68°57' E 033°02'0 0.0
2017-Oct-15 13:30N 68°57' E 033°02'0 0.0
2017-Oct-15 13:00N 68°57' E 033°02'0 0.0
2017-Oct-15 12:30N 68°57' E 033°02'0 0.0
2017-Oct-15 12:00N 68°57' E 033°02'0 0.0
2017-Oct-15 11:29N 68°57' E 033°02'0 0.0
2017-Oct-15 11:00N 68°57' E 033°02'0 0.0
2017-Oct-15 10:30N 68°57' E 033°02'0 0.0
2017-Oct-15 10:00N 68°57' E 033°02'0 0.0
2017-Oct-15 09:30N 68°57' E 033°02'0 0.0
2017-Oct-15 09:00N 68°57' E 033°02'0 0.0
2017-Oct-15 08:30N 68°57' E 033°02'0 0.0
2017-Oct-15 08:00N 68°57' E 033°02'0 0.0
2017-Oct-15 07:29N 68°57' E 033°02'0 0.0
2017-Oct-15 07:00N 68°57' E 033°02'0 0.0
2017-Oct-15 06:30N 68°57' E 033°02'0 0.0
2017-Oct-15 06:01N 68°57' E 033°02'0 0.0
2017-Oct-15 05:30N 68°57' E 033°02'0 0.0
2017-Oct-15 05:00N 68°57' E 033°02'0 0.0
2017-Oct-15 04:30N 68°57' E 033°02'0 0.0
2017-Oct-15 03:59N 68°57' E 033°02'0 0.0
2017-Oct-15 03:29N 68°57' E 033°02'0 0.0
2017-Oct-15 03:00N 68°57' E 033°02'0 0.0
2017-Oct-15 02:30N 68°57' E 033°02'0 0.0
2017-Oct-15 02:00N 68°57' E 033°02'0 0.0
2017-Oct-15 01:30N 68°57' E 033°02'0 0.0
2017-Oct-15 01:00N 68°57' E 033°02'0 0.0
2017-Oct-15 00:31N 68°57' E 033°02'0 0.0
2017-Oct-15 00:00N 68°57' E 033°02'0 0.0
2017-Oct-14 23:30N 68°57' E 033°02'0 0.0
2017-Oct-14 23:01N 68°57' E 033°02'0 0.0
2017-Oct-14 22:30N 68°57' E 033°02'0 0.0
2017-Oct-14 22:00N 68°57' E 033°02'0 0.0
2017-Oct-14 21:30N 68°57' E 033°02'0 0.0
2017-Oct-14 21:00N 68°57' E 033°02'0 0.0
2017-Oct-14 20:30N 68°57' E 033°02'0 0.0
2017-Oct-14 20:00N 68°57' E 033°02'0 0.0
2017-Oct-14 19:29N 68°57' E 033°02'0 0.0
2017-Oct-14 19:00N 68°57' E 033°02'0 0.0
2017-Oct-14 18:30N 68°57' E 033°02'0 0.0
2017-Oct-14 18:00N 68°57' E 033°02'0 0.0
2017-Oct-14 17:29N 68°57' E 033°02'0 0.0
2017-Oct-14 17:00N 68°57' E 033°02'0 0.0
2017-Oct-14 16:30N 68°57' E 033°02'0 0.0
2017-Oct-14 16:00N 68°57' E 033°02'0 0.0
2017-Oct-14 15:30N 68°57' E 033°02'0 0.0
2017-Oct-14 15:00N 68°57' E 033°02'0 0.0
2017-Oct-14 14:30N 68°57' E 033°02'0 0.0
2017-Oct-14 14:01N 68°57' E 033°02'0 0.0
2017-Oct-14 13:30N 68°57' E 033°02'0 0.0
2017-Oct-14 13:01N 68°57' E 033°02'0 0.0
2017-Oct-14 12:30N 68°57' E 033°02'0 0.0
2017-Oct-14 12:00N 68°57' E 033°02'0 0.0
2017-Oct-14 11:30N 68°57' E 033°02'0 0.0
2017-Oct-14 10:59N 68°57' E 033°02'0 0.0
2017-Oct-14 10:30N 68°57' E 033°02'0 0.0
2017-Oct-14 10:00N 68°57' E 033°02'0 0.0
2017-Oct-14 09:30N 68°57' E 033°02'0 0.0
2017-Oct-14 09:00N 68°57' E 033°02'0 0.0
2017-Oct-14 08:30N 68°57' E 033°02'0 0.0
2017-Oct-14 08:00N 68°57' E 033°02'0 0.0
2017-Oct-14 07:30N 68°57' E 033°02'0 0.0
2017-Oct-14 07:00N 68°57' E 033°02'0 0.0
2017-Oct-14 06:30N 68°57' E 033°02'0 0.0
2017-Oct-14 05:59N 68°57' E 033°02'0 0.0
2017-Oct-14 05:30N 68°57' E 033°02'0 0.0
2017-Oct-14 05:00N 68°57' E 033°02'0 0.0
2017-Oct-14 04:30N 68°57' E 033°02'0 0.0
2017-Oct-14 04:00N 68°57' E 033°02'0 0.0
2017-Oct-14 03:30N 68°57' E 033°02'0 0.0
2017-Oct-14 03:00N 68°57' E 033°02'0 0.0
2017-Oct-14 02:30N 68°57' E 033°02'0 0.0
2017-Oct-14 02:00N 68°57' E 033°02'0 0.0
2017-Oct-14 01:30N 68°57' E 033°02'0 0.0
2017-Oct-14 01:00N 68°57' E 033°02'0 0.0
2017-Oct-14 00:31N 68°57' E 033°02'0 0.0
2017-Oct-14 00:01N 68°57' E 033°02'0 0.0
2017-Oct-13 23:30N 68°57' E 033°02'0 0.0
2017-Oct-13 23:00N 68°57' E 033°02'0 0.0
2017-Oct-13 22:30N 68°57' E 033°02'0 0.0
2017-Oct-13 21:59N 68°57' E 033°02'0 0.0
2017-Oct-13 21:30N 68°57' E 033°02'0 0.0
2017-Oct-13 21:00N 68°57' E 033°02'0 0.0
2017-Oct-13 20:30N 68°57' E 033°02'0 0.0
2017-Oct-13 20:00N 68°57' E 033°02'0 0.0
2017-Oct-13 19:29N 68°57' E 033°02'0 0.0
2017-Oct-13 19:00N 68°57' E 033°02'0 0.0
2017-Oct-13 18:30N 68°57' E 033°02'0 0.0
2017-Oct-13 18:00N 68°57' E 033°02'0 0.0
2017-Oct-13 17:30N 68°57' E 033°02'0 0.0
2017-Oct-13 17:01N 68°57' E 033°02'0 0.0
2017-Oct-13 16:30N 68°57' E 033°02'0 0.0
2017-Oct-13 15:59N 68°57' E 033°02'0 0.0
2017-Oct-13 15:30N 68°57' E 033°02'0 0.0
2017-Oct-13 15:00N 68°57' E 033°02'0 0.0
2017-Oct-13 14:30N 68°57' E 033°02'0 0.0
2017-Oct-13 14:00N 68°57' E 033°02'0 0.0
2017-Oct-13 13:30N 68°57' E 033°02'0 0.0
2017-Oct-13 13:01N 68°57' E 033°02'0 0.0
2017-Oct-13 12:31N 68°57' E 033°02'0 0.0
2017-Oct-13 12:00N 68°57' E 033°02'0 0.0
2017-Oct-13 11:30N 68°57' E 033°02'0 0.0
2017-Oct-13 11:00N 68°57' E 033°02'0 0.0
2017-Oct-13 10:31N 68°57' E 033°02'0 0.0
2017-Oct-13 10:00N 68°57' E 033°02'0 0.0
2017-Oct-13 09:29N 68°57' E 033°02'0 0.0
2017-Oct-13 09:00N 68°57' E 033°02'0 0.0
2017-Oct-13 08:31N 68°57' E 033°02'0 0.0
2017-Oct-13 08:00N 68°57' E 033°02'0 0.0
2017-Oct-13 07:30N 68°57' E 033°02'0 0.0
2017-Oct-13 07:01N 68°57' E 033°02'0 0.0
2017-Oct-13 06:30N 68°57' E 033°02'0 0.0
2017-Oct-13 06:00N 68°57' E 033°02'0 0.0
2017-Oct-13 05:30N 68°57' E 033°02'0 0.0
2017-Oct-13 05:00N 68°57' E 033°02'0 0.0
2017-Oct-13 04:30N 68°57' E 033°02'0 0.0
2017-Oct-13 04:00N 68°57' E 033°02'0 0.0
2017-Oct-13 03:29N 68°57' E 033°02'0 0.0
2017-Oct-13 03:00N 68°57' E 033°02'0 0.0
2017-Oct-13 02:30N 68°57' E 033°02'0 0.0
2017-Oct-13 02:00N 68°57' E 033°02'0 0.0
2017-Oct-13 01:30N 68°57' E 033°02'0 0.0
2017-Oct-13 01:00N 68°57' E 033°02'0 0.0
2017-Oct-13 00:30N 68°57' E 033°02'0 0.0
2017-Oct-13 00:00N 68°57' E 033°02'0 0.0
2017-Oct-12 23:30N 68°57' E 033°02'0 0.0
2017-Oct-12 23:00N 68°57' E 033°02'0 0.0
2017-Oct-12 22:29N 68°57' E 033°02'0 0.0
2017-Oct-12 22:00N 68°57' E 033°02'0 0.0
2017-Oct-12 21:30N 68°57' E 033°02'0 0.0
2017-Oct-12 21:00N 68°57' E 033°02'0 0.0
2017-Oct-12 20:30N 68°57' E 033°02'0 0.0
2017-Oct-12 20:00N 68°57' E 033°02'0 0.0
2017-Oct-12 19:30N 68°57' E 033°02'0 0.0
2017-Oct-12 19:00N 68°57' E 033°02'0 0.0
2017-Oct-12 18:30N 68°57' E 033°02'0 0.0
2017-Oct-12 18:00N 68°57' E 033°02'0 0.0
2017-Oct-12 17:30N 68°57' E 033°02'0 0.0
2017-Oct-12 17:01N 68°57' E 033°02'0 0.0
2017-Oct-12 16:30N 68°57' E 033°02'0 0.0
2017-Oct-12 16:00N 68°57' E 033°02'0 0.0
2017-Oct-12 15:30N 68°57' E 033°02'0 0.0
2017-Oct-12 15:00N 68°57' E 033°02'0 0.0
2017-Oct-12 14:29N 68°57' E 033°02'0 0.0
2017-Oct-12 14:00N 68°57' E 033°02'0 0.0
2017-Oct-12 13:30N 68°57' E 033°02'0 0.0
2017-Oct-12 13:00N 68°57' E 033°02'0 0.0
2017-Oct-12 12:30N 68°57' E 033°02'0 0.0
2017-Oct-12 12:00N 68°57' E 033°02'0 0.0
2017-Oct-12 11:30N 68°57' E 033°02'0 0.0
2017-Oct-12 11:00N 68°57' E 033°02'0 0.0
2017-Oct-12 10:30N 68°57' E 033°02'0 0.0
2017-Oct-12 10:00N 68°57' E 033°02'0 0.0
2017-Oct-12 09:30N 68°57' E 033°02'0 0.0
2017-Oct-12 09:00N 68°57' E 033°02'0 0.0
2017-Oct-12 07:45N 68°57' E 033°02'0 0.0
2017-Oct-12 07:14N 68°57' E 033°02'0 0.6
2017-Oct-12 07:01N 68°57' E 033°01'0 0.3
2017-Oct-12 06:27N 68°57' E 033°02'0 0.0
2017-Oct-12 06:00N 68°57' E 033°02'0 0.0
2017-Oct-12 05:30N 68°57' E 033°02'0 0.0
2017-Oct-12 05:00N 68°57' E 033°02'0 0.0
2017-Oct-12 04:29N 68°57' E 033°02'0 0.0
2017-Oct-12 04:00N 68°57' E 033°02'0 0.0
2017-Oct-12 03:30N 68°57' E 033°02'0 0.0
2017-Oct-12 03:00N 68°57' E 033°02'0 0.0
2017-Oct-12 02:30N 68°57' E 033°02'0 0.0
2017-Oct-12 02:00N 68°57' E 033°02'0 0.0
2017-Oct-12 01:30N 68°57' E 033°02'0 0.0
2017-Oct-12 01:00N 68°57' E 033°02'0 0.0
2017-Oct-12 00:30N 68°57' E 033°02'0 0.0
2017-Oct-12 00:00N 68°57' E 033°02'0 0.0
2017-Oct-11 23:30N 68°57' E 033°02'0 0.0
2017-Oct-11 23:00N 68°57' E 033°02'0 0.0
2017-Oct-11 22:30N 68°57' E 033°02'0 0.0
2017-Oct-11 22:00N 68°57' E 033°02'0 0.0
2017-Oct-11 21:30N 68°57' E 033°02'0 0.0
2017-Oct-11 21:00N 68°57' E 033°02'0 0.0
2017-Oct-11 20:30N 68°57' E 033°02'0 0.0
2017-Oct-11 20:00N 68°57' E 033°02'0 0.0
2017-Oct-11 19:30N 68°57' E 033°02'0 0.0
2017-Oct-11 19:00N 68°57' E 033°02'0 0.0
2017-Oct-11 18:30N 68°57' E 033°02'0 0.0
2017-Oct-11 18:01N 68°57' E 033°02'0 0.0
2017-Oct-11 17:29N 68°57' E 033°02'0 0.0
2017-Oct-11 17:00N 68°57' E 033°02'0 0.0
2017-Oct-11 00:01N 68°57' E 033°02'0 0.0
2017-Oct-10 23:31N 68°57' E 033°02'0 0.0
2017-Oct-10 23:00N 68°57' E 033°02'0 0.0
2017-Oct-10 22:30N 68°57' E 033°02'0 0.0
2017-Oct-10 22:00N 68°57' E 033°02'0 0.0
2017-Oct-10 21:30N 68°57' E 033°02'0 0.0
2017-Oct-10 21:00N 68°57' E 033°02'0 0.0
2017-Oct-10 20:30N 68°57' E 033°02'0 0.0
2017-Oct-10 20:00N 68°57' E 033°02'0 0.0
2017-Oct-10 19:30N 68°57' E 033°02'0 0.0
2017-Oct-10 19:00N 68°57' E 033°02'0 0.0
2017-Oct-10 18:30N 68°57' E 033°02'0 0.0
2017-Oct-10 18:00N 68°57' E 033°02'0 0.0
2017-Oct-10 17:30N 68°57' E 033°02'0 0.0
2017-Oct-10 17:00N 68°57' E 033°02'0 0.0
2017-Oct-10 16:30N 68°57' E 033°02'0 0.0
2017-Oct-10 16:00N 68°57' E 033°02'0 0.0
2017-Oct-10 15:30N 68°57' E 033°02'0 0.0
2017-Oct-10 15:00N 68°57' E 033°02'0 0.0
2017-Oct-10 14:00N 68°57' E 033°02'0 0.0
2017-Oct-10 13:30N 68°57' E 033°02'0 0.0
2017-Oct-10 12:31N 68°57' E 033°02'0 0.9
2017-Oct-10 12:31N 68°57' E 033°02'0 0.0
2017-Oct-10 12:00N 68°57' E 033°02'0 0.0
2017-Oct-10 11:30N 68°57' E 033°02'0 0.0
2017-Oct-10 10:58N 68°57' E 033°02'0 0.0
2017-Oct-10 10:30N 68°57' E 033°02'  

Dump ship's entire track history